Time;durP1;ratioP1;P1;durP2;ratioP2;P2;SDS_P1;SDS_P2;PMS_P1;PMS_P2;Temp;Humidity;BMP_temperature;BMP_pressure;BME280_temperature;BME280_humidity;BME280_pressure;Samples;Min_cycle;Max_cycle;Signal;HPM_P1;HPM_P2
2022/06/14 00:01:03;;;;;;;2.97;0.80;;;;;;;11.02;100.00;101240.78;5029654;28;20261;-74
2022/06/14 00:03:32;;;;;;;1.00;0.90;;;;;;;10.96;100.00;101242.63;5033540;28;20594;-74
2022/06/14 00:06:01;;;;;;;0.87;0.80;;;;;;;11.09;100.00;101237.19;5033930;28;20733;-74
2022/06/14 00:08:29;;;;;;;2.30;0.80;;;;;;;10.93;100.00;101244.44;5033262;28;20274;-74
2022/06/14 00:10:58;;;;;;;1.07;0.80;;;;;;;10.92;100.00;101246.19;5026542;28;20208;-74
2022/06/14 00:13:26;;;;;;;0.70;0.70;;;;;;;10.96;100.00;101245.22;5030476;28;20541;-74
2022/06/14 00:15:54;;;;;;;0.77;0.77;;;;;;;10.92;100.00;101251.41;5028440;28;20255;-75
2022/06/14 00:18:21;;;;;;;0.97;0.83;;;;;;;10.85;100.00;101247.16;5022883;28;20268;-74
2022/06/14 00:20:50;;;;;;;1.17;0.80;;;;;;;10.76;100.00;101244.72;5027709;28;20239;-74
2022/06/14 00:23:17;;;;;;;1.97;1.00;;;;;;;10.85;100.00;101247.16;5026173;28;20198;-74
2022/06/14 00:25:46;;;;;;;0.87;0.87;;;;;;;10.71;100.00;101247.41;5027953;28;20587;-74
2022/06/14 00:28:16;;;;;;;1.57;1.00;;;;;;;10.76;100.00;101250.81;5022854;28;20226;-74
2022/06/14 00:30:45;;;;;;;1.63;1.10;;;;;;;10.80;100.00;101252.47;5015740;28;20692;-75
2022/06/14 00:33:14;;;;;;;1.37;0.90;;;;;;;10.77;100.00;101257.72;5015983;28;20191;-74
2022/06/14 00:35:42;;;;;;;1.80;0.93;;;;;;;10.84;100.00;101255.03;5018326;28;20300;-74
2022/06/14 00:38:10;;;;;;;1.60;0.70;;;;;;;10.79;100.00;101252.50;5013749;28;20312;-74
2022/06/14 00:40:38;;;;;;;1.30;0.93;;;;;;;10.83;100.00;101259.38;5032760;28;20214;-74
2022/06/14 00:43:12;;;;;;;10.80;1.17;;;;;;;10.91;100.00;101265.31;5025836;28;20209;-74
2022/06/14 00:46:12;;;;;;;1.00;1.00;;;;;;;10.85;100.00;101251.53;5031714;28;20217;-74
2022/06/14 00:48:43;;;;;;;1.20;1.10;;;;;;;10.80;100.00;101262.91;5011757;28;20319;-75
2022/06/14 00:51:16;;;;;;;1.33;0.70;;;;;;;10.79;100.00;101271.59;5018975;28;20551;-74
2022/06/14 00:53:47;;;;;;;2.30;0.90;;;;;;;10.85;100.00;101277.59;5024202;28;20671;-75
2022/06/14 00:56:19;;;;;;;0.97;0.87;;;;;;;10.76;100.00;101278.63;5031713;28;20224;-74
2022/06/14 00:58:51;;;;;;;1.63;0.80;;;;;;;10.86;100.00;101274.13;5032140;28;20308;-74
2022/06/14 01:01:22;;;;;;;1.50;1.30;;;;;;;10.89;100.00;101279.28;5030329;28;20213;-75
2022/06/14 01:03:54;;;;;;;1.00;0.80;;;;;;;10.90;100.00;101270.56;5024666;28;20563;-74
2022/06/14 01:10:13;;;;;;;2.50;0.90;;;;;;;10.87;100.00;101278.44;5015479;28;20760;-74
2022/06/14 01:16:35;;;;;;;1.33;0.90;;;;;;;10.80;100.00;101281.16;5027943;28;20197;-75
2022/06/14 01:26:56;;;;;;;2.73;0.97;;;;;;;10.54;100.00;101280.72;4990511;28;20906;-75
2022/06/14 01:29:25;;;;;;;2.47;1.07;;;;;;;10.55;100.00;101274.59;4973630;28;20196;-74
2022/06/14 01:31:58;;;;;;;1.57;1.00;;;;;;;10.39;100.00;101282.66;5028388;28;20566;-74
2022/06/14 01:38:20;;;;;;;5.03;1.20;;;;;;;10.67;100.00;101282.25;5030569;28;20224;-74
2022/06/14 01:41:02;;;;;;;3.17;1.20;;;;;;;10.63;100.00;101285.78;5026063;28;20210;-75
2022/06/14 01:43:52;;;;;;;1.00;0.90;;;;;;;10.68;100.00;101283.13;5018309;28;20201;-75
2022/06/14 01:46:24;;;;;;;1.73;1.00;;;;;;;10.75;100.00;101280.38;5022397;28;20594;-75
2022/06/14 01:51:55;;;;;;;3.30;1.10;;;;;;;10.80;100.00;101278.56;5027488;28;20461;-74
2022/06/14 02:00:49;;;;;;;5.90;1.70;;;;;;;10.46;100.00;101293.84;5010982;28;20209;-69
2022/06/14 02:06:14;;;;;;;1.80;1.30;;;;;;;10.08;100.00;101315.22;5029137;28;20270;-70
2022/06/14 02:08:47;;;;;;;3.23;1.13;;;;;;;10.24;100.00;101307.19;5025684;28;20652;-70
2022/06/14 02:11:18;;;;;;;1.20;1.10;;;;;;;10.11;100.00;101313.44;5025973;28;20204;-70
2022/06/14 02:13:48;;;;;;;1.23;0.90;;;;;;;10.22;100.00;101311.56;5028917;28;20564;-70
2022/06/14 02:16:24;;;;;;;1.40;1.00;;;;;;;10.07;100.00;101306.53;5028032;28;20216;-70
2022/06/14 02:18:55;;;;;;;0.90;0.90;;;;;;;9.83;100.00;101320.72;5026936;28;20205;-70
2022/06/14 02:21:27;;;;;;;4.83;1.17;;;;;;;9.83;100.00;101320.72;5027315;28;20724;-70
2022/06/14 02:23:58;;;;;;;4.43;1.07;;;;;;;9.88;100.00;101321.53;5028452;28;20214;-70
2022/06/14 02:26:29;;;;;;;1.63;1.10;;;;;;;10.12;100.00;101320.38;5028074;28;20225;-70
2022/06/14 02:28:59;;;;;;;2.93;1.03;;;;;;;9.90;100.00;101321.53;5029260;28;20554;-70
2022/06/14 02:31:32;;;;;;;1.47;0.90;;;;;;;9.83;100.00;101324.22;5020452;28;20196;-70
2022/06/14 02:34:03;;;;;;;2.07;1.00;;;;;;;9.83;100.00;101323.34;5028413;28;20227;-70
2022/06/14 02:36:33;;;;;;;1.30;1.20;;;;;;;9.94;100.00;101316.28;5025189;28;20964;-70
2022/06/14 02:39:06;;;;;;;0.90;0.90;;;;;;;10.04;100.00;101319.59;5025617;28;20260;-70
2022/06/14 02:41:41;;;;;;;1.40;1.20;;;;;;;9.90;100.00;101317.16;5027561;28;21017;-70
2022/06/14 02:44:13;;;;;;;2.30;1.37;;;;;;;10.12;100.00;101317.78;5028155;28;20193;-70
2022/06/14 02:46:45;;;;;;;1.37;1.27;;;;;;;10.33;100.00;101314.03;5027498;28;20223;-70
2022/06/14 02:49:16;;;;;;;2.00;1.20;;;;;;;10.11;100.00;101328.22;5034771;28;20214;-69
2022/06/14 02:51:47;;;;;;;1.20;1.10;;;;;;;10.04;100.00;101327.41;5027445;28;20649;-70
2022/06/14 02:54:19;;;;;;;1.33;1.23;;;;;;;9.90;100.00;101334.53;5028503;28;20218;-70
2022/06/14 02:56:50;;;;;;;1.30;1.20;;;;;;;9.80;100.00;101337.25;5028280;28;20213;-70
2022/06/14 02:59:22;;;;;;;2.07;1.07;;;;;;;9.99;100.00;101331.81;5030987;28;20284;-70
2022/06/14 03:01:54;;;;;;;1.47;1.27;;;;;;;9.89;100.00;101332.84;5024909;28;20208;-69
2022/06/14 03:04:26;;;;;;;2.03;0.93;;;;;;;9.72;100.00;101335.63;5031409;28;20218;-70
2022/06/14 03:06:58;;;;;;;1.10;1.00;;;;;;;9.83;100.00;101338.97;5028651;28;20204;-70
2022/06/14 03:09:31;;;;;;;1.40;1.20;;;;;;;9.95;100.00;101337.97;5028974;28;21139;-69
2022/06/14 03:12:05;;;;;;;1.33;1.23;;;;;;;9.81;100.00;101341.56;5024208;28;20199;-70
2022/06/14 03:14:44;;;;;;;3.93;1.40;;;;;;;10.03;100.00;101339.59;5031063;28;20205;-70
2022/06/14 03:17:51;;;;;;;2.87;1.17;;;;;;;10.03;100.00;101344.81;5028906;28;20632;-70
2022/06/14 03:24:57;;;;;;;1.20;1.10;;;;;;;9.94;100.00;101360.56;5029969;28;20207;-72
2022/06/14 03:27:32;;;;;;;1.80;1.20;;;;;;;10.07;100.00;101363.88;5032040;28;20280;-72
2022/06/14 03:30:02;;;;;;;1.70;1.13;;;;;;;9.93;100.00;101366.63;5034406;28;20198;-71
2022/06/14 03:32:34;;;;;;;2.23;1.10;;;;;;;10.00;100.00;101364.81;5033820;28;20201;-70
2022/06/14 03:35:08;;;;;;;1.50;1.17;;;;;;;9.99;100.00;101374.38;5030853;28;20230;-72
2022/06/14 03:37:35;;;;;;;1.63;1.00;;;;;;;10.18;100.00;101363.72;5029691;28;20206;-72
2022/06/14 03:40:05;;;;;;;2.10;1.10;;;;;;;10.44;100.00;101365.16;5031176;28;20190;-72
2022/06/14 03:42:33;;;;;;;1.83;1.20;;;;;;;10.42;100.00;101373.84;5025546;28;20230;-72
2022/06/14 03:45:02;;;;;;;2.77;1.00;;;;;;;10.57;100.00;101377.13;5030985;28;20703;-71
2022/06/14 03:47:30;;;;;;;4.07;1.67;;;;;;;10.75;100.00;101378.63;5030811;28;20198;-71
2022/06/14 03:50:00;;;;;;;1.80;1.20;;;;;;;10.94;100.00;101372.25;5030130;28;20209;-71
2022/06/14 03:52:43;;;;;;;1.53;0.97;;;;;;;10.82;100.00;101380.28;5030704;28;20215;-71
2022/06/14 03:55:23;;;;;;;3.00;1.10;;;;;;;11.00;100.00;101379.13;5034090;28;20613;-72
2022/06/14 03:58:12;;;;;;;3.33;1.20;;;;;;;11.04;100.00;101380.78;5035134;28;20851;-71
2022/06/14 04:00:44;;;;;;;1.10;1.00;;;;;;;11.23;100.00;101378.72;5029670;28;20219;-72
2022/06/14 04:03:35;;;;;;;1.80;1.17;;;;;;;11.02;100.00;101385.16;5029865;28;20195;-72
2022/06/14 04:06:14;;;;;;;2.40;1.20;;;;;;;11.10;100.00;101382.41;5030447;28;20223;-69
2022/06/14 04:08:51;;;;;;;2.37;1.20;;;;;;;11.17;100.00;101387.53;5030238;28;20199;-72
2022/06/14 04:12:13;;;;;;;1.20;1.10;;;;;;;11.11;100.00;101384.16;5029573;28;20195;-72
2022/06/14 04:14:50;;;;;;;4.23;1.20;;;;;;;11.01;99.20;101388.69;5023691;28;20608;-72
2022/06/14 04:17:22;;;;;;;1.67;1.03;;;;;;;11.16;100.00;101382.34;5026141;28;20203;-72
2022/06/14 04:20:01;;;;;;;3.30;0.90;;;;;;;11.06;100.00;101389.44;5029839;28;20202;-72
2022/06/14 04:22:37;;;;;;;1.30;0.87;;;;;;;11.06;100.00;101391.19;5030368;28;20307;-71
2022/06/14 04:25:10;;;;;;;1.50;1.07;;;;;;;11.17;100.00;101389.28;5030953;28;20586;-72
2022/06/14 04:27:44;;;;;;;3.17;1.23;;;;;;;11.11;100.00;101379.78;5031932;28;20287;-73
2022/06/14 04:30:14;;;;;;;2.73;1.33;;;;;;;11.03;100.00;101381.69;5023989;28;20195;-72
2022/06/14 04:32:48;;;;;;;1.63;0.90;;;;;;;11.19;100.00;101374.47;5029524;28;20210;-71
2022/06/14 04:39:06;;;;;;;1.00;0.90;;;;;;;11.61;100.00;101377.22;5027503;28;20315;-72
2022/06/14 04:41:42;;;;;;;3.50;1.23;;;;;;;11.75;100.00;101382.19;5025245;28;20219;-71
2022/06/14 04:44:16;;;;;;;1.70;1.13;;;;;;;11.88;99.76;101375.81;5028751;28;20222;-71
2022/06/14 04:46:45;;;;;;;2.27;1.10;;;;;;;11.86;95.04;101384.59;5030764;28;20215;-71
2022/06/14 04:49:18;;;;;;;2.33;1.20;;;;;;;12.01;96.90;101383.44;5027682;28;20204;-71
2022/06/14 04:51:49;;;;;;;3.63;1.27;;;;;;;12.15;97.86;101385.78;5031769;28;20205;-72
2022/06/14 04:54:20;;;;;;;1.93;1.20;;;;;;;12.18;95.83;101383.97;5032008;28;20438;-71
2022/06/14 04:56:53;;;;;;;2.03;1.00;;;;;;;12.42;97.83;101386.97;5029581;28;20231;-71
2022/06/14 04:59:25;;;;;;;6.93;1.30;;;;;;;12.56;93.91;101397.97;5028827;28;20369;-71
2022/06/14 05:01:56;;;;;;;6.03;1.13;;;;;;;12.66;91.27;101396.00;5025831;28;20215;-71
2022/06/14 05:04:41;;;;;;;2.93;1.13;;;;;;;12.80;89.97;101398.31;5028343;28;20212;-72
2022/06/14 05:07:14;;;;;;;1.80;1.13;;;;;;;12.86;87.64;101404.25;5026456;28;20200;-72
2022/06/14 05:09:45;;;;;;;2.30;1.07;;;;;;;12.93;87.71;101402.38;5025903;28;20596;-72
2022/06/14 05:12:23;;;;;;;4.93;1.17;;;;;;;12.98;86.87;101402.25;5028890;28;20585;-71
2022/06/14 05:14:56;;;;;;;2.37;1.00;;;;;;;13.17;88.16;101410.53;5033213;28;20226;-71
2022/06/14 05:17:35;;;;;;;1.90;0.80;;;;;;;13.21;85.77;101413.03;5028256;28;20669;-72
2022/06/14 05:20:10;;;;;;;4.03;1.30;;;;;;;13.31;86.04;101403.22;5021780;28;20261;-72
2022/06/14 05:25:53;;;;;;;1.53;0.80;;;;;;;13.55;86.38;101421.84;4999889;28;20276;-71
2022/06/14 05:28:33;;;;;;;0.93;0.93;;;;;;;13.63;85.78;101410.25;5027893;28;20210;-72
2022/06/14 05:31:10;;;;;;;2.63;1.00;;;;;;;13.76;83.93;101425.66;5028310;28;20340;-72
2022/06/14 05:37:31;;;;;;;3.73;1.00;;;;;;;13.94;81.70;101419.06;5027239;28;20187;-71
2022/06/14 05:40:02;;;;;;;1.70;1.07;;;;;;;14.02;82.67;101428.44;5026771;28;20279;-72
2022/06/14 05:42:31;;;;;;;0.93;0.83;;;;;;;14.06;81.47;101429.19;5028067;28;20599;-72
2022/06/14 05:56:26;;;;;;;3.57;1.07;;;;;;;14.16;80.77;101437.69;5025497;28;20719;-72
2022/06/14 05:59:02;;;;;;;1.80;0.77;;;;;;;14.25;79.68;101440.03;5023569;28;20741;-72
2022/06/14 06:01:34;;;;;;;4.30;1.13;;;;;;;14.09;79.48;101449.22;5029835;28;20221;-72
2022/06/14 06:08:35;;;;;;;1.20;0.80;;;;;;;14.16;80.79;101442.94;5026688;28;20328;-71
2022/06/14 06:14:56;;;;;;;1.57;1.00;;;;;;;14.10;78.11;101448.31;5022242;28;20246;-72
2022/06/14 06:17:35;;;;;;;0.93;0.80;;;;;;;14.23;78.22;101451.47;5026306;28;20206;-71
2022/06/14 06:20:09;;;;;;;1.27;0.80;;;;;;;14.35;77.54;101461.59;5028720;28;20610;-72
2022/06/14 06:22:41;;;;;;;3.50;0.90;;;;;;;14.42;76.88;101457.03;5026725;28;20215;-72
2022/06/14 06:32:43;;;;;;;3.07;1.10;;;;;;;14.78;76.54;101455.13;5026164;28;20182;-72
2022/06/14 06:39:31;;;;;;;0.60;0.57;;;;;;;14.49;71.77;101462.09;5005378;28;20236;-72
2022/06/14 06:42:04;;;;;;;2.20;0.80;;;;;;;14.48;72.27;101460.34;5004667;28;20448;-72
2022/06/14 06:44:39;;;;;;;2.90;1.10;;;;;;;14.61;73.02;101452.16;5023745;28;20199;-71
2022/06/14 06:47:14;;;;;;;3.17;1.00;;;;;;;14.78;72.40;101457.75;5029307;28;20553;-72
2022/06/14 06:49:54;;;;;;;2.60;1.20;;;;;;;14.84;71.69;101461.97;5027429;28;20675;-72
2022/06/14 06:52:24;;;;;;;3.07;1.00;;;;;;;15.11;71.08;101470.75;5031088;28;20668;-72
2022/06/14 06:54:56;;;;;;;2.73;1.00;;;;;;;15.02;66.94;101473.66;5030735;28;20227;-72
2022/06/14 06:57:47;;;;;;;2.43;0.70;;;;;;;15.23;67.16;101478.25;5023652;28;20207;-72
2022/06/14 07:00:17;;;;;;;1.93;0.90;;;;;;;15.37;66.09;101474.28;5031832;28;20215;-72
2022/06/14 07:02:48;;;;;;;3.03;0.87;;;;;;;15.47;64.85;101486.22;5026673;28;20212;-72
2022/06/14 07:05:17;;;;;;;3.03;0.97;;;;;;;15.48;63.95;101488.81;5030062;28;20688;-72
2022/06/14 07:07:56;;;;;;;0.70;0.70;;;;;;;15.39;63.17;101482.97;5031495;28;20571;-72
2022/06/14 07:10:33;;;;;;;3.23;1.00;;;;;;;15.50;63.44;101488.75;5032763;28;20209;-72
2022/06/14 07:17:46;;;;;;;4.30;0.83;;;;;;;15.57;61.81;101492.06;5002023;28;20238;-72
2022/06/14 07:21:03;;;;;;;1.47;0.97;;;;;;;15.51;62.31;101486.09;4996976;28;20229;-72
2022/06/14 07:23:42;;;;;;;2.07;0.87;;;;;;;15.51;61.76;101491.34;5005531;28;20597;-69
2022/06/14 07:26:16;;;;;;;1.10;0.67;;;;;;;15.32;62.65;101488.44;5027130;28;20260;-69
2022/06/14 07:28:52;;;;;;;1.40;0.83;;;;;;;15.08;62.00;101499.75;5030286;28;20738;-69
2022/06/14 07:35:26;;;;;;;2.33;0.70;;;;;;;15.59;62.05;101488.44;5025750;28;20265;-72
2022/06/14 07:37:59;;;;;;;1.97;0.97;;;;;;;15.84;59.43;101501.66;5025255;28;20829;-71
2022/06/14 07:40:31;;;;;;;1.40;0.70;;;;;;;15.68;58.39;101497.81;5029584;28;20200;-72
2022/06/14 07:43:05;;;;;;;2.63;0.80;;;;;;;15.76;57.12;101497.56;5030202;28;20686;-72
2022/06/14 07:45:35;;;;;;;0.93;0.57;;;;;;;15.94;60.08;101485.56;5028394;28;20226;-72
2022/06/14 07:48:06;;;;;;;1.10;0.80;;;;;;;16.01;56.34;101495.81;5031571;28;20538;-72
2022/06/14 07:50:38;;;;;;;1.13;0.70;;;;;;;15.98;55.80;101498.53;5030998;28;20660;-72
2022/06/14 07:53:10;;;;;;;2.77;0.70;;;;;;;16.09;56.70;101485.00;5033157;28;20212;-72
2022/06/14 07:55:43;;;;;;;0.90;0.53;;;;;;;16.32;54.57;101480.69;5046233;23;20238;-73
2022/06/14 07:58:15;;;;;;;1.47;0.60;;;;;;;16.37;53.69;101490.13;5040791;28;20231;-73
2022/06/14 08:03:35;;;;;;;0.80;0.53;;;;;;;16.58;51.74;101493.75;5034257;28;20619;-73
2022/06/14 08:09:56;;;;;;;1.30;0.63;;;;;;;16.66;49.65;101490.84;5065332;23;20283;-72
2022/06/14 08:12:32;;;;;;;1.20;0.80;;;;;;;16.52;51.16;101488.72;5059104;28;20214;-72
2022/06/14 08:15:01;;;;;;;0.80;0.60;;;;;;;16.61;49.04;101490.16;5059969;28;20693;-72
2022/06/14 08:21:25;;;;;;;3.57;0.90;;;;;;;16.56;49.82;101489.47;5040073;28;20222;-72
2022/06/14 08:23:56;;;;;;;1.60;0.60;;;;;;;16.72;50.52;101487.97;5040709;28;20199;-72
2022/06/14 08:26:27;;;;;;;2.00;0.83;;;;;;;16.90;49.37;101496.97;5035191;28;20218;-72
2022/06/14 08:29:37;;;;;;;3.60;0.93;;;;;;;16.86;50.19;101486.63;5042204;28;20211;-72
2022/06/14 08:32:11;;;;;;;1.17;0.50;;;;;;;16.74;49.34;101496.66;5037459;28;20641;-72
2022/06/14 08:38:31;;;;;;;1.33;0.80;;;;;;;17.06;48.39;101491.94;5040674;28;20271;-73
2022/06/14 08:44:59;;;;;;;3.47;0.83;;;;;;;17.36;46.82;101497.78;5028007;28;20221;-73
2022/06/14 08:47:43;;;;;;;2.60;1.00;;;;;;;17.39;46.53;101496.78;5041164;28;20230;-73
2022/06/14 08:50:22;;;;;;;1.27;0.70;;;;;;;17.48;45.29;101498.19;5037812;28;20703;-72
2022/06/14 08:53:24;;;;;;;2.90;0.80;;;;;;;17.73;45.88;101493.63;5043330;28;20203;-72
2022/06/14 08:56:06;;;;;;;1.70;0.73;;;;;;;17.85;46.39;101500.13;5035915;28;20260;-73
2022/06/14 08:59:02;;;;;;;2.10;1.00;;;;;;;17.65;46.68;101490.44;5035824;28;20222;-73
2022/06/14 09:05:36;;;;;;;1.90;0.70;;;;;;;17.40;46.40;101482.69;5042948;28;20199;-72
2022/06/14 09:12:28;;;;;;;1.23;0.60;;;;;;;17.84;45.66;101487.88;5001417;28;20263;-72
2022/06/14 09:15:36;;;;;;;2.00;0.67;;;;;;;18.14;46.81;101474.31;5042694;28;20203;-73
2022/06/14 09:18:30;;;;;;;1.37;0.80;;;;;;;18.32;44.92;101484.03;5035651;28;20221;-73
2022/06/14 09:21:12;;;;;;;1.90;0.67;;;;;;;18.54;45.64;101472.50;5039548;28;20206;-73
2022/06/14 09:23:56;;;;;;;3.10;0.90;;;;;;;18.75;44.98;101475.94;5038844;28;20284;-73
2022/06/14 09:26:32;;;;;;;1.37;0.83;;;;;;;18.81;44.05;101475.63;5036408;28;20547;-73
2022/06/14 09:29:42;;;;;;;2.33;1.10;;;;;;;19.02;44.75;101475.59;5036869;28;20262;-72
2022/06/14 09:35:35;;;;;;;2.00;0.80;;;;;;;18.89;44.26;101481.47;5035453;28;20207;-72
2022/06/14 09:38:23;;;;;;;1.10;0.90;;;;;;;18.79;44.82;101485.44;5038723;28;20353;-73
2022/06/14 09:41:08;;;;;;;3.90;0.80;;;;;;;18.55;44.10;101474.22;5039381;28;20203;-73
2022/06/14 09:44:04;;;;;;;4.03;0.73;;;;;;;17.99;43.35;101470.56;5034480;28;20719;-72
2022/06/14 09:54:58;;;;;;;1.70;0.73;;;;;;;18.50;43.02;101476.19;5038374;28;20273;-73
2022/06/14 09:57:47;;;;;;;2.03;1.00;;;;;;;18.61;43.56;101476.59;5038052;28;21790;-73
2022/06/14 10:00:31;;;;;;;1.00;0.67;;;;;;;18.56;41.63;101478.56;5035035;28;20220;-72
2022/06/14 10:03:33;;;;;;;2.40;0.90;;;;;;;18.44;43.91;101471.22;5041501;28;20215;-73
2022/06/14 10:06:16;;;;;;;2.00;0.80;;;;;;;18.47;44.15;101461.38;5019334;28;20210;-72
2022/06/14 10:09:04;;;;;;;1.23;0.60;;;;;;;18.86;46.68;101463.09;5043171;28;20240;-73
2022/06/14 10:11:48;;;;;;;0.60;0.60;;;;;;;19.35;48.84;101459.88;5042406;28;20206;-72
2022/06/14 10:14:32;;;;;;;2.23;1.00;;;;;;;19.57;44.73;101472.00;5032310;28;20196;-73
2022/06/14 10:17:18;;;;;;;1.30;0.70;;;;;;;19.69;43.90;101474.03;5044032;28;20199;-73
2022/06/14 10:20:09;;;;;;;1.93;0.90;;;;;;;19.51;41.36;101472.28;5032555;28;20238;-73
2022/06/14 10:22:49;;;;;;;0.60;0.60;;;;;;;19.64;43.17;101466.31;5031894;28;20230;-72
2022/06/14 10:25:25;;;;;;;2.10;0.80;;;;;;;19.73;43.76;101475.56;5031909;28;20715;-72
2022/06/14 10:28:13;;;;;;;1.90;0.80;;;;;;;19.77;42.34;101463.94;5037316;28;20214;-71
2022/06/14 10:30:52;;;;;;;2.10;0.90;;;;;;;19.89;42.06;101469.53;5039992;28;20199;-72
2022/06/14 10:33:31;;;;;;;3.30;1.00;;;;;;;19.67;40.39;101473.25;5042659;28;20206;-72
2022/06/14 10:36:14;;;;;;;1.50;0.70;;;;;;;19.71;42.58;101463.38;5036311;28;20286;-72
2022/06/14 10:38:56;;;;;;;2.63;0.87;;;;;;;19.98;43.11;101456.69;5045642;28;20219;-72
2022/06/14 10:41:32;;;;;;;1.30;0.60;;;;;;;20.07;40.09;101468.59;5043549;28;20671;-72
2022/06/14 10:44:13;;;;;;;4.13;0.80;;;;;;;20.38;39.86;101465.13;5036423;28;20580;-72
2022/06/14 10:46:43;;;;;;;2.37;1.00;;;;;;;20.18;39.79;101460.06;5048755;28;20213;-72
2022/06/14 10:49:35;;;;;;;3.03;0.90;;;;;;;19.93;39.83;101466.66;5051749;28;20231;-72
2022/06/14 10:52:43;;;;;;;3.47;0.83;;;;;;;19.72;41.12;101465.94;5055641;28;20199;-72
2022/06/14 10:55:28;;;;;;;2.70;0.80;;;;;;;19.93;42.24;101463.13;5033501;28;20208;-71
2022/06/14 10:58:12;;;;;;;2.03;0.90;;;;;;;19.94;41.82;101463.06;5048321;28;20183;-72
2022/06/14 11:00:43;;;;;;;2.10;0.60;;;;;;;20.22;41.42;101459.81;5042206;28;20199;-72
2022/06/14 11:03:26;;;;;;;0.57;0.50;;;;;;;20.38;41.68;101457.19;5046893;28;20230;-72
2022/06/14 11:06:12;;;;;;;1.37;0.73;;;;;;;20.23;39.20;101452.75;5044047;28;20238;-72
2022/06/14 11:08:51;;;;;;;3.37;0.97;;;;;;;20.68;39.44;101459.13;5043618;28;20809;-72
2022/06/14 11:11:46;;;;;;;2.20;0.90;;;;;;;20.89;39.93;101457.06;5050370;28;20205;-72
2022/06/14 11:14:21;;;;;;;1.07;0.70;;;;;;;20.57;40.02;101442.94;5044497;28;20191;-72
2022/06/14 11:17:20;;;;;;;2.03;0.73;;;;;;;20.26;39.79;101444.59;5051930;28;20301;-72
2022/06/14 11:20:06;;;;;;;2.70;0.90;;;;;;;20.01;40.57;101445.91;5041534;28;20616;-72
2022/06/14 11:22:40;;;;;;;2.53;0.63;;;;;;;20.31;40.17;101439.06;5043962;28;20226;-72
2022/06/14 11:25:26;;;;;;;2.10;0.67;;;;;;;20.76;40.37;101435.72;5040512;28;20214;-72
2022/06/14 11:28:04;;;;;;;3.33;0.90;;;;;;;20.63;38.93;101433.81;5043091;28;20199;-72
2022/06/14 11:30:41;;;;;;;1.33;0.77;;;;;;;20.57;40.13;101430.53;5039079;28;20231;-72
2022/06/14 11:33:17;;;;;;;0.73;0.60;;;;;;;20.57;40.11;101430.53;5038277;28;20464;-72
2022/06/14 11:35:59;;;;;;;2.77;0.77;;;;;;;20.87;39.95;101437.75;5040709;28;20199;-72
2022/06/14 11:38:42;;;;;;;3.27;0.60;;;;;;;20.73;38.90;101438.53;5040646;28;20195;-72
2022/06/14 11:41:14;;;;;;;2.83;0.80;;;;;;;20.96;39.62;101431.06;5039889;28;20234;-72
2022/06/14 11:43:51;;;;;;;1.90;0.73;;;;;;;20.91;37.10;101425.19;5040208;28;20234;-72
2022/06/14 11:46:31;;;;;;;1.27;0.70;;;;;;;20.54;37.76;101427.22;5039393;28;20679;-72
2022/06/14 11:49:02;;;;;;;2.83;0.60;;;;;;;20.46;38.58;101434.75;5041522;28;20310;-72
2022/06/14 11:51:39;;;;;;;1.90;0.60;;;;;;;20.35;39.95;101436.19;5036995;28;20204;-72
2022/06/14 11:54:22;;;;;;;3.17;0.90;;;;;;;19.84;39.00;101425.66;5035522;28;20218;-72
2022/06/14 11:57:12;;;;;;;0.50;0.50;;;;;;;19.71;40.85;101421.88;5039104;28;20246;-72
2022/06/14 12:00:06;;;;;;;2.63;0.60;;;;;;;19.88;40.39;101422.84;5042510;28;20238;-72
2022/06/14 12:02:47;;;;;;;2.33;0.73;;;;;;;20.12;40.18;101413.59;5044778;28;20914;-72
2022/06/14 12:05:29;;;;;;;2.50;0.77;;;;;;;20.30;39.16;101413.53;5039260;28;20203;-71
2022/06/14 12:08:06;;;;;;;1.30;0.70;;;;;;;20.47;38.98;101423.19;5037259;28;20298;-72
2022/06/14 12:10:50;;;;;;;0.90;0.70;;;;;;;20.70;39.32;101422.81;5046543;28;20260;-72
2022/06/14 12:13:32;;;;;;;0.73;0.60;;;;;;;20.85;39.45;101418.44;5037723;28;20287;-72
2022/06/14 12:16:07;;;;;;;2.57;0.93;;;;;;;20.88;40.27;101418.28;5040930;28;20576;-72
2022/06/14 12:18:38;;;;;;;2.53;0.70;;;;;;;20.93;38.73;101421.50;5034040;28;20238;-72
2022/06/14 12:21:13;;;;;;;0.77;0.73;;;;;;;20.89;37.06;101419.97;5043341;28;20226;-72
2022/06/14 12:23:45;;;;;;;1.60;0.70;;;;;;;20.89;38.67;101422.59;5038944;28;20219;-72
2022/06/14 12:29:05;;;;;;;2.50;0.93;;;;;;;20.71;37.46;101415.72;5034876;28;20227;-72
2022/06/14 12:31:39;;;;;;;1.10;0.67;;;;;;;20.61;37.82;101415.34;5041734;28;20214;-72
2022/06/14 12:34:10;;;;;;;2.07;0.80;;;;;;;20.55;38.18;101410.41;5041837;28;20214;-72
2022/06/14 12:36:46;;;;;;;1.43;0.90;;;;;;;20.64;38.28;101401.97;5043097;28;20211;-72
2022/06/14 12:39:18;;;;;;;0.60;0.50;;;;;;;20.93;38.36;101408.25;5041474;28;20218;-72
2022/06/14 12:41:53;;;;;;;1.77;0.70;;;;;;;21.01;38.23;101397.22;5045132;28;20203;-72
2022/06/14 12:44:29;;;;;;;1.73;0.60;;;;;;;21.21;38.60;101398.69;5043142;28;20214;-72
2022/06/14 12:47:01;;;;;;;2.70;1.33;;;;;;;21.20;36.77;101394.34;5034884;28;20199;-72
2022/06/14 12:49:32;;;;;;;3.50;1.00;;;;;;;21.38;38.09;101392.41;5041550;28;20225;-72
2022/06/14 12:52:04;;;;;;;3.03;0.83;;;;;;;21.31;36.43;101399.00;5039587;28;20733;-72
2022/06/14 12:54:40;;;;;;;1.33;0.60;;;;;;;21.10;38.34;101393.16;5038480;28;20219;-72
2022/06/14 12:57:14;;;;;;;2.00;0.60;;;;;;;21.09;38.01;101383.50;5040381;28;20853;-72
2022/06/14 13:07:13;;;;;;;0.60;0.50;;;;;;;21.19;37.22;101376.72;4995663;28;20682;-72
2022/06/14 13:09:55;;;;;;;1.83;0.60;;;;;;;20.89;36.74;101366.94;5038397;28;20233;-73
2022/06/14 13:12:33;;;;;;;4.60;0.90;;;;;;;21.01;37.80;101364.56;5038513;28;20297;-72
2022/06/14 13:15:09;;;;;;;2.30;0.83;;;;;;;21.24;37.36;101374.66;5033944;28;20196;-72
2022/06/14 13:17:58;;;;;;;2.10;0.60;;;;;;;21.18;37.69;101375.88;5038974;28;20294;-72
2022/06/14 13:20:32;;;;;;;1.37;0.63;;;;;;;21.25;37.76;101375.50;5031819;28;20887;-72
2022/06/14 13:23:10;;;;;;;1.53;0.80;;;;;;;21.23;36.63;101372.09;5041539;28;20260;-72
2022/06/14 13:25:50;;;;;;;4.93;1.00;;;;;;;21.30;36.65;101370.78;5035018;28;20209;-72
2022/06/14 13:28:32;;;;;;;1.17;0.77;;;;;;;21.40;38.16;101363.13;5034875;28;20209;-72
2022/06/14 13:31:14;;;;;;;2.47;0.60;;;;;;;21.16;35.69;101372.47;5041083;28;20203;-72
2022/06/14 13:33:50;;;;;;;1.10;0.60;;;;;;;21.08;37.04;101366.75;5043162;28;20206;-72
2022/06/14 13:36:24;;;;;;;1.60;0.70;;;;;;;20.96;37.37;101363.00;5035346;28;20195;-72
2022/06/14 13:38:56;;;;;;;1.47;0.77;;;;;;;21.13;36.82;101366.47;5036540;28;20219;-72
2022/06/14 13:41:32;;;;;;;2.67;0.77;;;;;;;21.07;36.83;101353.56;5040121;28;20284;-72
2022/06/14 13:44:05;;;;;;;2.00;0.83;;;;;;;21.23;37.76;101357.03;5039052;28;20628;-73
2022/06/14 13:46:35;;;;;;;5.23;0.90;;;;;;;21.46;37.32;101365.44;5038227;28;20203;-70
2022/06/14 13:49:09;;;;;;;2.57;0.70;;;;;;;21.31;36.27;101356.56;5037045;28;20223;-72
2022/06/14 13:51:42;;;;;;;3.97;0.70;;;;;;;21.11;36.26;101355.97;5037262;28;20257;-72
2022/06/14 13:54:18;;;;;;;1.73;0.80;;;;;;;21.14;37.37;101352.25;5032248;28;20198;-72
2022/06/14 13:56:50;;;;;;;1.97;0.77;;;;;;;21.21;36.44;101358.91;5033045;28;20222;-72
2022/06/14 13:59:21;;;;;;;1.63;0.97;;;;;;;21.21;37.08;101361.56;5033606;28;20215;-71
2022/06/14 14:01:56;;;;;;;3.50;0.83;;;;;;;20.88;36.42;101356.44;5039376;28;20299;-71
2022/06/14 14:04:31;;;;;;;0.73;0.57;;;;;;;20.89;37.75;101352.84;5032390;28;20314;-71
2022/06/14 14:07:06;;;;;;;0.93;0.67;;;;;;;20.83;39.00;101340.81;5036788;28;20296;-71
2022/06/14 14:09:45;;;;;;;3.53;0.80;;;;;;;20.87;37.41;101352.09;5054250;22;20584;-71
2022/06/14 14:12:17;;;;;;;4.10;0.87;;;;;;;20.85;37.21;101341.59;5036292;28;20195;-72
2022/06/14 14:14:59;;;;;;;1.80;0.70;;;;;;;20.98;36.89;101341.72;5035939;28;20195;-72
2022/06/14 14:17:34;;;;;;;2.27;0.90;;;;;;;21.31;37.64;101336.22;5032769;28;20651;-73
2022/06/14 14:20:22;;;;;;;3.10;0.90;;;;;;;21.33;37.65;101329.00;5042278;28;20556;-72